Stacja Pogody
Warszawa Praga-Północ

Szerokość 52°15'43"N Długość 21°01'22"E Wysokość 110m n.p.m.


146 dzień roku. Do końca pozostalo 220 dni.
Wschód Słońca 04:27 Górowanie Słońca 12:32 Zachód Słońca 20:38 bliznieta
Data juliańska 2457534.445 Odległość Słońca 151550599 km Średn. kątowa Słońca 0,316°
Wschód Księżyca 23:26 Zachód Księżyca 07:34 Wiek Księżyca 19 dni Moon
Widoczność Księżyca 84,44% Odległość Księżyca 387134 km Średn. kątowa Księżyca 0,309°
Dzień krótszy od najdłuższego o: 00:36 Długość dnia 16:11 Imieniny Grzegorza, Urbana, Magdaleny



  Aktualizacja: 24-05-2016 18:36:23
TEMPERATURA
Aktualnie: 28.2°C ↓
Temperatura odczuwalna:26.9°C
Punkt rosy5.1°C
WIATR
Średnia prędkość: 1.1km/h ↑
Prędkość w podmuchach:2.5km/h
Przepływ w ciągu doby:km
Kierunek wiatru:360°
CIŚNIENIE
Względne:1007.6hPa
Bezwzględne:994.5hPa
Trend ciśnienia:powolny spadek
WILGOTNOŚĆ
Wilgotność względna: 23% ↑
Podstawa chmur6316m
DESZCZ
W ostatniej godzinie: 0.0mm
Dzisiaj:0.0mm
W tym miesiącu:30.6mm
METAR
EPWA 252030Z VRB02KT CAVOK 14/12 Q1010 NOSIG
Ostrzeżenia burzowe





a  a a